Weather at Rainbow Heliport

Public forecast

Using degrees Fahrenheit for public forecast. Weather courtesy of forecast.io.

Closest aviation weather report (METAR) to Rainbow Heliport

Closest report is General Wayne A. Downing Peoria International Airport, 6.7 nm (12.4 km) S. Retrieved 2021/07/24 17:54 UTC (16 minutes ago):

KPIA 241754Z 24010G19KT 10SM FEW042 33/23 A2993 RMK AO2 SLP128 T03280233 10328 20233 58015

Closest aviation forecast (TAF) to Rainbow Heliport

Closest forecast is General Wayne A. Downing Peoria International Airport, 6.7 nm (12.4 km) S. Retrieved 2021/07/24 18:27 UTC (0 seconds ago):

TAF KPIA 241725Z 2418/2518 23011KT P6SM SCT035 TEMPO 2423/2502 3SM -TSRA BKN035CB FM250200 25004KT P6SM SCT035 BKN250 FM250900 30004KT 4SM BR BKN250 FM251300 VRB03KT P6SM SCT250